Time;durP1;ratioP1;P1;durP2;ratioP2;P2;SDS_P1;SDS_P2;PMS_P1;PMS_P2;Temp;Humidity;BMP_temperature;BMP_pressure;BME280_temperature;BME280_humidity;BME280_pressure;Samples;Min_cycle;Max_cycle;Signal;HPM_P1;HPM_P2
2022/11/30 00:00:20;;;;;;;;;24.00;21.75;;;;;9.49;65.23;101744.09;6338248;22;45301;-51
2022/11/30 00:02:46;;;;;;;;;17.00;17.00;;;;;9.47;64.67;101737.97;6340618;22;45460;-50
2022/11/30 00:05:12;;;;;;;;;20.50;16.75;;;;;9.49;65.15;101741.47;6340035;22;46768;-52
2022/11/30 00:07:38;;;;;;;;;16.50;13.75;;;;;9.48;64.97;101737.97;6341028;22;45277;-51
2022/11/30 00:10:04;;;;;;;;;23.25;19.75;;;;;9.47;64.84;101736.25;6339989;22;45191;-51
2022/11/30 00:12:29;;;;;;;;;21.25;20.00;;;;;9.44;64.85;101725.69;6338461;22;45491;-51
2022/11/30 00:14:55;;;;;;;;;24.50;20.75;;;;;9.46;65.12;101728.34;6338668;22;46108;-48
2022/11/30 00:17:20;;;;;;;;;24.50;20.75;;;;;9.44;64.86;101726.56;6340524;22;48672;-51
2022/11/30 00:19:45;;;;;;;;;26.00;21.75;;;;;9.42;65.02;101719.56;6340380;22;45156;-48
2022/11/30 00:22:10;;;;;;;;;20.25;19.50;;;;;9.43;65.00;101731.81;6340819;22;45508;-50
2022/11/30 00:24:36;;;;;;;;;20.75;19.00;;;;;9.37;65.10;101719.56;6339596;22;46253;-50
2022/11/30 00:27:01;;;;;;;;;23.50;18.25;;;;;9.41;65.19;101730.94;6340583;22;45157;-49
2022/11/30 00:29:26;;;;;;;;;24.00;21.00;;;;;9.41;64.85;101730.94;6340338;22;45226;-51
2022/11/30 00:31:52;;;;;;;;;18.75;17.25;;;;;9.41;64.82;101731.81;6340647;22;45389;-48
2022/11/30 00:34:17;;;;;;;;;23.50;20.25;;;;;9.39;64.87;101724.81;6340718;22;45081;-53
2022/11/30 00:36:42;;;;;;;;;26.50;22.00;;;;;9.39;64.91;101728.28;6340556;22;45146;-52
2022/11/30 00:39:08;;;;;;;;;26.00;21.75;;;;;9.38;65.11;101720.41;6340156;22;45157;-49
2022/11/30 00:41:33;;;;;;;;;26.25;22.25;;;;;9.35;64.98;101715.16;6340379;22;45368;-51
2022/11/30 00:43:58;;;;;;;;;28.25;23.00;;;;;9.33;65.03;101712.50;6340681;22;48348;-52
2022/11/30 00:46:24;;;;;;;;;22.25;21.50;;;;;9.34;64.82;101714.25;6341963;22;45399;-52
2022/11/30 00:48:49;;;;;;;;;30.50;23.00;;;;;9.32;65.22;101715.13;6341559;22;45154;-51
2022/11/30 00:51:14;;;;;;;;;23.50;22.50;;;;;9.29;65.14;101715.97;6341988;22;45099;-52
2022/11/30 00:53:40;;;;;;;;;26.00;24.00;;;;;9.29;65.23;101713.38;6341528;22;45253;-51
2022/11/30 00:56:07;;;;;;;;;23.00;21.00;;;;;9.29;65.02;101713.38;6341635;22;45299;-48
2022/11/30 00:58:33;;;;;;;;;20.25;16.75;;;;;9.28;65.04;101711.59;6341103;22;45266;-52
2022/11/30 01:00:58;;;;;;;;;26.50;22.75;;;;;9.27;64.79;101718.59;6340714;22;45273;-50
2022/11/30 01:03:23;;;;;;;;;24.50;20.00;;;;;9.26;64.98;101715.97;6340929;22;46100;-49
2022/11/30 01:05:49;;;;;;;;;23.00;21.00;;;;;9.26;64.77;101713.34;6341529;22;45290;-48
2022/11/30 01:08:14;;;;;;;;;23.25;21.75;;;;;9.25;64.94;101714.22;6341548;22;45171;-47
2022/11/30 01:10:41;;;;;;;;;29.00;26.75;;;;;9.24;64.80;101715.06;6341228;22;45195;-49
2022/11/30 01:13:08;;;;;;;;;35.75;27.75;;;;;9.23;65.16;101721.19;6341185;22;45204;-48
2022/11/30 01:15:39;;;;;;;;;30.25;27.00;;;;;9.22;65.05;101719.44;6340901;22;45174;-49
2022/11/30 01:18:05;;;;;;;;;33.25;29.25;;;;;9.21;65.03;101717.69;6341271;22;45166;-48
2022/11/30 01:20:30;;;;;;;;;29.75;24.75;;;;;9.18;64.94;101715.94;6341143;22;45282;-47
2022/11/30 01:22:56;;;;;;;;;24.25;21.75;;;;;9.17;64.85;101716.78;6341058;22;45093;-48
2022/11/30 01:25:22;;;;;;;;;23.25;19.00;;;;;9.16;65.13;101719.41;6341429;22;45141;-48
2022/11/30 01:27:48;;;;;;;;;31.25;24.75;;;;;9.15;65.26;101717.66;6341242;22;45424;-48
2022/11/30 01:30:14;;;;;;;;;29.75;28.00;;;;;9.13;65.13;101711.50;6341033;22;45097;-47
2022/11/30 01:32:39;;;;;;;;;26.25;21.25;;;;;9.12;64.93;101710.63;6341035;22;46049;-48
2022/11/30 01:35:05;;;;;;;;;30.25;25.25;;;;;9.10;65.16;101710.59;6341329;22;45262;-47
2022/11/30 01:37:30;;;;;;;;;21.00;20.00;;;;;9.10;64.95;101707.13;6341644;22;45378;-50
2022/11/30 01:39:56;;;;;;;;;24.00;22.75;;;;;9.07;65.08;101704.50;6340828;22;45247;-48
2022/11/30 01:42:21;;;;;;;;;25.25;23.50;;;;;9.08;65.09;101709.72;6341250;22;46418;-52
2022/11/30 01:44:49;;;;;;;;;23.50;22.50;;;;;9.07;64.89;101714.97;6341178;22;45326;-51
2022/11/30 01:47:14;;;;;;;;;25.75;22.75;;;;;9.05;64.88;101712.31;6341150;22;45342;-50
2022/11/30 01:49:44;;;;;;;;;25.50;24.00;;;;;9.06;64.93;101713.22;6338279;22;45434;-49
2022/11/30 01:52:18;;;;;;;;;23.50;20.50;;;;;9.05;65.01;101714.94;6341156;22;45854;-52
2022/11/30 01:54:52;;;;;;;;;20.00;19.25;;;;;9.03;65.08;101719.31;6340286;22;45270;-53
2022/11/30 01:57:34;;;;;;;;;28.25;24.25;;;;;9.01;64.91;101725.41;6340471;22;45221;-48
2022/11/30 02:00:05;;;;;;;;;24.75;22.00;;;;;9.02;64.97;101722.78;6340533;22;45137;-49
2022/11/30 02:02:42;;;;;;;;;25.25;21.75;;;;;8.99;65.15;101722.75;6340782;22;45316;-52
2022/11/30 02:05:08;;;;;;;;;24.25;19.00;;;;;9.00;64.87;101721.88;6340455;22;45209;-48
2022/11/30 02:07:34;;;;;;;;;26.75;22.75;;;;;8.94;64.96;101722.75;6341504;22;45202;-48
2022/11/30 02:09:59;;;;;;;;;21.50;17.50;;;;;8.96;65.14;101724.50;6340613;22;45109;-47
2022/11/30 02:12:38;;;;;;;;;21.50;16.00;;;;;8.94;64.99;101724.47;6340459;22;46155;-49
2022/11/30 02:15:21;;;;;;;;;26.50;21.25;;;;;8.92;64.93;101726.22;6341289;22;45390;-47
2022/11/30 02:18:04;;;;;;;;;26.00;21.75;;;;;8.88;65.13;101714.81;6340961;22;45153;-48
2022/11/30 02:20:44;;;;;;;;;25.00;20.50;;;;;8.90;65.06;101717.44;6341090;22;45246;-48
2022/11/30 02:23:35;;;;;;;;;26.00;22.00;;;;;8.90;64.97;101720.06;6340042;22;46211;-48
2022/11/30 02:26:34;;;;;;;;;22.00;18.25;;;;;8.88;64.92;101724.41;6340874;22;45204;-49
2022/11/30 02:29:28;;;;;;;;;22.00;20.50;;;;;8.87;65.11;101728.78;6340932;22;45156;-51
2022/11/30 02:32:19;;;;;;;;;23.00;21.50;;;;;8.86;65.10;101723.53;6338979;22;45475;-48
2022/11/30 02:34:47;;;;;;;;;21.75;20.25;;;;;8.84;64.92;101722.63;6340582;22;46080;-49
2022/11/30 02:37:15;;;;;;;;;21.75;19.00;;;;;8.84;65.00;101725.25;6338772;22;45132;-47
2022/11/30 02:39:41;;;;;;;;;24.75;22.25;;;;;8.83;64.99;101724.38;6340547;22;45181;-51
2022/11/30 02:42:12;;;;;;;;;26.00;23.00;;;;;8.81;64.96;101723.50;6341035;22;45317;-47
2022/11/30 02:44:39;;;;;;;;;25.50;21.75;;;;;8.82;65.13;101720.00;6339049;22;45989;-48
2022/11/30 02:47:18;;;;;;;;;22.00;20.50;;;;;8.81;64.91;101722.63;6340449;22;45601;-48
2022/11/30 02:50:01;;;;;;;;;25.50;21.25;;;;;8.79;64.90;101722.59;6340692;22;45262;-48
2022/11/30 02:52:29;;;;;;;;;24.00;19.50;;;;;8.78;65.13;101719.09;6340936;22;45318;-48
2022/11/30 02:55:05;;;;;;;;;20.50;19.50;;;;;8.78;64.99;101728.72;6340109;22;46150;-51
2022/11/30 02:57:31;;;;;;;;;24.00;18.50;;;;;8.76;64.93;101723.44;6340315;22;45171;-49
2022/11/30 02:59:59;;;;;;;;;25.75;21.50;;;;;8.76;64.82;101728.69;6338734;22;45188;-48
2022/11/30 03:02:24;;;;;;;;;28.75;20.25;;;;;8.74;64.76;101725.19;6340728;22;45124;-51
2022/11/30 03:04:50;;;;;;;;;23.25;19.75;;;;;8.72;65.19;101726.91;6340985;22;45244;-52
2022/11/30 03:07:15;;;;;;;;;17.00;17.00;;;;;8.70;65.07;101728.63;6341164;22;45193;-51
2022/11/30 03:09:40;;;;;;;;;19.00;14.00;;;;;8.70;64.83;101728.63;6340586;22;45285;-48
2022/11/30 03:12:06;;;;;;;;;20.00;16.50;;;;;8.69;65.00;101728.63;6340846;22;45175;-51
2022/11/30 03:14:31;;;;;;;;;15.75;14.25;;;;;8.68;65.09;101726.84;6340938;22;46145;-51
2022/11/30 03:16:56;;;;;;;;;15.00;14.25;;;;;8.66;65.03;101726.84;6340560;22;45172;-51
2022/11/30 03:19:22;;;;;;;;;18.75;16.75;;;;;8.65;64.73;101726.84;6340687;22;45204;-51
2022/11/30 03:21:47;;;;;;;;;19.00;15.75;;;;;8.63;64.89;101737.31;6341024;22;45267;-50
2022/11/30 03:24:13;;;;;;;;;14.25;13.00;;;;;8.62;64.80;101738.16;6340516;22;45696;-49
2022/11/30 03:26:38;;;;;;;;;13.00;11.50;;;;;8.61;64.99;101744.25;6340782;22;45222;-52
2022/11/30 03:29:03;;;;;;;;;13.25;10.00;;;;;8.59;65.14;101743.34;6340191;22;45221;-49
2022/11/30 03:31:29;;;;;;;;;9.50;9.50;;;;;8.58;64.79;101746.88;6339258;22;45235;-49
2022/11/30 03:33:54;;;;;;;;;9.25;9.25;;;;;8.56;64.72;101746.81;6341034;22;45306;-50
2022/11/30 03:36:19;;;;;;;;;16.00;10.75;;;;;8.54;64.97;101747.69;6341038;22;45346;-47
2022/11/30 03:38:46;;;;;;;;;9.75;9.25;;;;;8.52;65.03;101747.66;6340919;22;45732;-48
2022/11/30 03:41:15;;;;;;;;;9.50;9.50;;;;;8.50;64.97;101743.28;6340216;22;45192;-48
2022/11/30 03:43:41;;;;;;;;;7.75;7.75;;;;;8.50;65.06;101753.75;6339968;22;46283;-49
2022/11/30 03:46:07;;;;;;;;;10.25;9.25;;;;;8.48;64.90;101760.72;6338964;22;45389;-50
2022/11/30 03:48:34;;;;;;;;;11.75;9.25;;;;;8.46;64.96;101763.31;6340583;22;45254;-51
2022/11/30 03:51:00;;;;;;;;;10.75;9.25;;;;;8.42;64.85;101757.13;6340438;22;45294;-50
2022/11/30 03:53:25;;;;;;;;;12.50;9.50;;;;;8.39;64.72;101757.13;6340452;22;45214;-48
2022/11/30 03:55:57;;;;;;;;;10.50;7.75;;;;;8.38;65.00;101762.34;6340283;22;45406;-52
2022/11/30 03:58:23;;;;;;;;;6.25;6.00;;;;;8.34;64.86;101760.53;6341225;22;45236;-47
2022/11/30 04:00:49;;;;;;;;;9.50;8.50;;;;;8.31;65.01;101756.13;6340252;22;45191;-48
2022/11/30 04:03:14;;;;;;;;;7.50;7.50;;;;;8.28;64.64;101767.47;6339887;22;45171;-51
2022/11/30 04:05:40;;;;;;;;;10.00;7.25;;;;;8.22;64.98;101758.66;6339910;22;45201;-51
2022/11/30 04:08:05;;;;;;;;;10.00;8.00;;;;;8.19;64.72;101764.75;6338434;22;45215;-50
2022/11/30 04:10:31;;;;;;;;;9.25;8.25;;;;;8.18;64.94;101772.59;6340498;22;45117;-50
2022/11/30 04:12:56;;;;;;;;;11.00;8.00;;;;;8.15;64.97;101770.81;6340645;22;45226;-52
2022/11/30 04:15:21;;;;;;;;;13.00;8.50;;;;;8.11;64.94;101769.88;6340711;22;45142;-49
2022/11/30 04:17:47;;;;;;;;;12.00;8.25;;;;;8.10;64.78;101765.50;6339390;22;45150;-52
2022/11/30 04:20:12;;;;;;;;;8.00;8.00;;;;;8.08;64.57;101768.97;6340586;22;45159;-49
2022/11/30 04:22:38;;;;;;;;;8.25;8.25;;;;;8.04;64.55;101775.91;6340102;22;45809;-47
2022/11/30 04:25:03;;;;;;;;;7.00;7.00;;;;;8.02;64.95;101776.75;6340681;22;45986;-48
2022/11/30 04:27:28;;;;;;;;;4.50;4.25;;;;;8.00;64.74;101779.34;6340467;22;45271;-49
2022/11/30 04:29:54;;;;;;;;;6.50;6.50;;;;;7.96;64.82;101772.28;6340224;22;45454;-49
2022/11/30 04:32:19;;;;;;;;;3.75;3.75;;;;;7.97;64.90;101784.53;6340234;22;45593;-48
2022/11/30 04:34:44;;;;;;;;;4.75;4.75;;;;;7.95;64.81;101786.25;6338512;22;45194;-48
2022/11/30 04:37:10;;;;;;;;;5.00;5.00;;;;;7.94;64.63;101790.59;6339922;22;45160;-46
2022/11/30 04:39:35;;;;;;;;;4.50;4.00;;;;;7.93;64.51;101787.97;6340050;22;45182;-49
2022/11/30 04:42:00;;;;;;;;;4.25;4.00;;;;;7.93;65.18;101790.59;6339966;22;47179;-48
2022/11/30 04:44:26;;;;;;;;;3.50;3.50;;;;;7.91;64.49;101785.34;6340500;22;45308;-49
2022/11/30 04:46:51;;;;;;;;;8.00;5.50;;;;;7.92;64.76;101792.34;6340628;22;45275;-50
2022/11/30 04:49:16;;;;;;;;;8.00;8.00;;;;;7.91;64.77;101790.56;6339312;22;45265;-48
2022/11/30 04:51:42;;;;;;;;;8.00;8.00;;;;;7.89;64.98;101794.91;6339683;22;47156;-48
2022/11/30 04:54:07;;;;;;;;;8.25;7.25;;;;;7.92;64.67;101799.28;6340255;22;45272;-50
2022/11/30 04:56:32;;;;;;;;;8.00;8.00;;;;;7.91;64.85;101789.66;6340400;22;45507;-49
2022/11/30 04:59:00;;;;;;;;;11.00;8.00;;;;;7.90;64.91;101794.03;6339797;22;47021;-52
2022/11/30 05:01:25;;;;;;;;;6.25;5.75;;;;;7.92;64.44;101797.56;6340210;22;46350;-51
2022/11/30 05:03:50;;;;;;;;;7.50;6.00;;;;;7.80;64.92;101785.19;6339497;22;45389;-49
2022/11/30 05:06:16;;;;;;;;;9.75;8.00;;;;;7.92;64.79;101800.19;6340225;22;45385;-52
2022/11/30 05:08:41;;;;;;;;;11.00;9.75;;;;;7.92;64.94;101796.66;6339742;22;45569;-52
2022/11/30 05:11:06;;;;;;;;;10.25;8.50;;;;;7.91;64.42;101800.13;6338730;22;48644;-49
2022/11/30 05:13:31;;;;;;;;;9.00;7.00;;;;;7.92;65.14;101794.06;6339352;22;47783;-50
2022/11/30 05:15:57;;;;;;;;;11.00;9.75;;;;;7.90;64.90;101788.81;6340113;22;45236;-52
2022/11/30 05:18:22;;;;;;;;;9.75;7.75;;;;;7.90;64.86;101786.19;6339430;22;50856;-51
2022/11/30 05:20:49;;;;;;;;;9.25;8.75;;;;;7.90;64.76;101785.28;6339012;22;46358;-48
2022/11/30 05:23:15;;;;;;;;;10.00;8.50;;;;;7.90;64.68;101782.66;6339865;22;45203;-47
2022/11/30 05:25:41;;;;;;;;;12.50;9.00;;;;;7.90;64.99;101782.66;6339602;22;45389;-51
2022/11/30 05:28:07;;;;;;;;;12.25;10.00;;;;;7.86;64.80;101779.16;6339616;22;45211;-49
2022/11/30 05:30:32;;;;;;;;;17.75;15.75;;;;;7.89;64.80;101791.41;6338426;22;46917;-52
2022/11/30 05:32:57;;;;;;;;;11.00;10.00;;;;;7.86;64.75;101779.16;6340965;22;45172;-52
2022/11/30 05:35:22;;;;;;;;;8.50;6.25;;;;;7.89;65.09;101778.31;6341599;22;45183;-50
2022/11/30 05:37:48;;;;;;;;;10.75;10.00;;;;;7.86;64.78;101784.41;6340646;22;45508;-52
2022/11/30 05:40:13;;;;;;;;;10.25;8.00;;;;;7.86;64.93;101776.53;6340381;22;46888;-50
2022/11/30 05:42:39;;;;;;;;;10.50;9.00;;;;;7.88;65.01;101781.78;6339065;22;45638;-50
2022/11/30 05:45:04;;;;;;;;;10.25;9.25;;;;;7.88;65.01;101780.03;6341566;22;45185;-49
2022/11/30 05:47:30;;;;;;;;;10.25;9.25;;;;;7.87;65.04;101774.78;6341366;22;45215;-52
2022/11/30 05:49:55;;;;;;;;;13.50;11.25;;;;;7.85;64.99;101777.41;6340435;22;45301;-52
2022/11/30 05:52:20;;;;;;;;;14.00;11.25;;;;;7.87;64.84;101772.19;6341486;22;45163;-51
2022/11/30 05:54:46;;;;;;;;;9.75;9.25;;;;;7.85;64.97;101771.25;6341115;22;45176;-50
2022/11/30 05:57:11;;;;;;;;;14.75;14.00;;;;;7.86;64.94;101766.06;6340905;22;45426;-50
2022/11/30 05:59:36;;;;;;;;;15.50;10.75;;;;;7.76;65.02;101751.09;6340488;22;45923;-50
2022/11/30 06:02:01;;;;;;;;;9.50;9.00;;;;;7.85;65.08;101772.16;6341435;22;45234;-50
2022/11/30 06:04:27;;;;;;;;;11.25;10.25;;;;;7.86;64.83;101778.25;6341605;22;45245;-49
2022/11/30 06:06:54;;;;;;;;;10.75;10.75;;;;;7.85;65.08;101774.78;6341343;22;45361;-50
2022/11/30 06:09:20;;;;;;;;;12.25;9.50;;;;;7.86;64.93;101775.66;6340710;22;45921;-52
2022/11/30 06:11:45;;;;;;;;;15.50;13.00;;;;;7.85;64.89;101769.53;6340819;22;45238;-51
2022/11/30 06:14:10;;;;;;;;;13.50;12.00;;;;;7.86;64.91;101775.66;6341473;22;45374;-51
2022/11/30 06:16:38;;;;;;;;;12.75;12.75;;;;;7.87;65.02;101773.03;6340511;22;45286;-49
2022/11/30 06:19:03;;;;;;;;;12.75;11.75;;;;;7.87;65.36;101770.44;6340568;22;45270;-50
2022/11/30 06:21:29;;;;;;;;;15.75;12.25;;;;;7.89;65.11;101767.84;6340750;22;45236;-51
2022/11/30 06:23:54;;;;;;;;;18.00;12.00;;;;;7.89;65.07;101770.47;6341104;22;45204;-52
2022/11/30 06:26:19;;;;;;;;;11.50;11.00;;;;;7.90;65.18;101769.59;6341225;22;45525;-52
2022/11/30 06:28:45;;;;;;;;;15.75;12.00;;;;;7.87;65.22;101766.94;6341008;22;46183;-51
2022/11/30 06:31:10;;;;;;;;;15.00;10.25;;;;;7.90;65.01;101770.47;6341209;22;45690;-52
2022/11/30 06:33:35;;;;;;;;;14.50;10.00;;;;;7.90;65.20;101766.97;6340712;22;45228;-50
2022/11/30 06:36:02;;;;;;;;;17.00;14.25;;;;;7.89;65.08;101767.84;6340619;22;45139;-51
2022/11/30 06:38:27;;;;;;;;;16.00;12.25;;;;;7.93;65.18;101777.50;6340392;22;45982;-52
2022/11/30 06:40:53;;;;;;;;;12.25;12.25;;;;;7.92;64.94;101779.25;6340027;22;45151;-51
2022/11/30 06:43:19;;;;;;;;;12.75;10.75;;;;;7.92;65.13;101781.88;6340893;22;45194;-51
2022/11/30 06:45:45;;;;;;;;;11.75;10.00;;;;;7.91;65.11;101777.47;6340608;22;45471;-46
2022/11/30 06:48:11;;;;;;;;;12.50;11.00;;;;;7.90;65.16;101778.34;6340576;22;46184;-48
2022/11/30 06:50:37;;;;;;;;;15.75;13.00;;;;;7.91;64.98;101785.34;6337693;22;45282;-50
2022/11/30 06:53:02;;;;;;;;;21.25;13.50;;;;;7.92;65.06;101784.47;6340576;22;45351;-52
2022/11/30 06:55:31;;;;;;;;;19.50;16.00;;;;;7.93;64.96;101787.97;6341302;22;45265;-47
2022/11/30 06:58:04;;;;;;;;;20.00;13.25;;;;;7.95;64.92;101791.50;6340451;22;45176;-51
2022/11/30 07:00:29;;;;;;;;;16.75;15.75;;;;;7.94;65.14;101787.13;6340894;22;45256;-49
2022/11/30 07:02:54;;;;;;;;;19.50;17.75;;;;;7.88;65.11;101784.41;6341079;22;45226;-50
2022/11/30 07:05:19;;;;;;;;;17.50;16.75;;;;;7.94;65.05;101793.22;6340019;22;45239;-49
2022/11/30 07:07:45;;;;;;;;;17.75;15.25;;;;;7.98;64.94;101797.63;6339485;22;45696;-52
2022/11/30 07:10:10;;;;;;;;;18.00;16.50;;;;;7.99;65.19;101803.75;6339284;22;45338;-49
2022/11/30 07:12:35;;;;;;;;;15.00;13.75;;;;;7.99;65.13;101795.91;6339994;22;45246;-51
2022/11/30 07:15:01;;;;;;;;;17.75;14.00;;;;;8.03;65.13;101799.44;6339680;22;45990;-50
2022/11/30 07:17:26;;;;;;;;;16.00;13.50;;;;;8.04;65.04;101804.69;6338971;22;45325;-48
2022/11/30 07:19:51;;;;;;;;;16.50;14.00;;;;;8.06;65.20;101805.59;6340053;22;45531;-47
2022/11/30 07:22:17;;;;;;;;;15.50;14.75;;;;;8.07;65.28;101809.09;6340911;22;45093;-48
2022/11/30 07:27:26;;;;;;;;;14.50;14.50;;;;;8.11;65.27;101814.41;6340995;22;45240;-52
2022/11/30 07:29:51;;;;;;;;;18.75;16.25;;;;;8.11;65.41;101809.16;6339869;22;45155;-49
2022/11/30 07:32:17;;;;;;;;;24.75;18.25;;;;;8.13;65.42;101807.41;6339588;22;45541;-48
2022/11/30 07:34:42;;;;;;;;;23.50;16.75;;;;;8.14;65.16;101813.56;6339395;22;45284;-48
2022/11/30 07:37:08;;;;;;;;;20.25;20.00;;;;;8.16;65.20;101824.03;6339231;22;46263;-48
2022/11/30 07:39:33;;;;;;;;;22.75;19.75;;;;;8.14;65.23;101822.28;6338613;22;53152;-48
2022/11/30 07:41:59;;;;;;;;;18.75;18.75;;;;;8.17;65.17;101826.69;6338335;22;45270;-47
2022/11/30 07:44:24;;;;;;;;;19.50;17.75;;;;;8.20;65.29;101833.69;6340979;22;45177;-49
2022/11/30 07:46:49;;;;;;;;;24.75;20.75;;;;;8.20;65.24;101829.34;6340402;22;47439;-49
2022/11/30 07:49:15;;;;;;;;;22.00;16.50;;;;;8.22;65.33;101831.97;6338050;22;45232;-47
2022/11/30 07:51:40;;;;;;;;;22.25;17.75;;;;;8.24;65.07;101830.28;6340492;22;45434;-47
2022/11/30 07:54:05;;;;;;;;;62.25;49.00;;;;;8.24;65.14;101825.91;6339410;22;49398;-48
2022/11/30 07:56:31;;;;;;;;;18.50;18.50;;;;;8.24;65.25;101830.28;6339778;22;45443;-50
2022/11/30 07:58:59;;;;;;;;;22.25;18.50;;;;;8.30;65.13;101830.31;6340341;22;45213;-47
2022/11/30 08:01:28;;;;;;;;;17.75;17.25;;;;;8.31;65.12;101837.31;6340750;22;45195;-49
2022/11/30 08:03:53;;;;;;;;;22.75;17.25;;;;;8.32;65.35;101827.75;6338462;22;46097;-48
2022/11/30 08:06:24;;;;;;;;;20.75;18.50;;;;;8.35;65.21;101839.16;6338646;22;47018;-50
2022/11/30 08:08:51;;;;;;;;;21.25;17.75;;;;;8.38;65.12;101838.31;6338136;22;45272;-49
2022/11/30 08:11:20;;;;;;;;;19.00;18.50;;;;;8.38;65.35;101833.94;6340464;22;45160;-51
2022/11/30 08:13:46;;;;;;;;;22.75;16.50;;;;;8.42;65.35;101843.56;6340252;22;45388;-51
2022/11/30 08:16:14;;;;;;;;;21.00;18.00;;;;;8.44;65.04;101843.63;6340431;22;45957;-47
2022/11/30 08:18:40;;;;;;;;;19.75;18.00;;;;;8.47;65.17;101850.66;6338437;22;45339;-50
2022/11/30 08:21:08;;;;;;;;;27.75;23.25;;;;;8.48;65.38;101853.31;6340774;22;45263;-52
2022/11/30 08:23:39;;;;;;;;;25.00;22.25;;;;;8.50;65.41;101846.31;6339997;22;45183;-51
2022/11/30 08:26:13;;;;;;;;;28.25;20.75;;;;;8.53;65.48;101851.63;6339629;22;45288;-51
2022/11/30 08:28:40;;;;;;;;;24.50;20.00;;;;;8.53;65.32;101841.13;6340261;22;45601;-50
2022/11/30 08:31:15;;;;;;;;;22.75;18.00;;;;;8.56;65.31;101851.63;6338350;22;45192;-51
2022/11/30 08:33:40;;;;;;;;;26.75;20.25;;;;;8.57;65.34;101844.66;6339833;22;45367;-49
2022/11/30 08:36:17;;;;;;;;;23.50;19.00;;;;;8.59;65.47;101848.16;6340173;22;45203;-51
2022/11/30 08:38:43;;;;;;;;;21.00;20.75;;;;;8.62;65.24;101842.97;6340304;22;45089;-49
2022/11/30 08:41:11;;;;;;;;;23.50;20.50;;;;;8.66;65.27;101850.00;6339962;22;45181;-51
2022/11/30 08:43:36;;;;;;;;;25.75;21.00;;;;;8.69;65.76;101859.66;6340021;22;45436;-50
2022/11/30 08:46:04;;;;;;;;;35.00;28.25;;;;;8.71;65.39;101858.78;6340108;22;45224;-48
2022/11/30 08:48:30;;;;;;;;;27.25;24.25;;;;;8.73;65.56;101858.81;6339983;22;45187;-49
2022/11/30 08:51:00;;;;;;;;;28.25;25.25;;;;;8.77;65.63;101852.75;6339740;22;45268;-48
2022/11/30 08:53:25;;;;;;;;;23.50;19.25;;;;;8.78;65.44;101855.38;6339678;22;45174;-49
2022/11/30 08:55:56;;;;;;;;;30.25;22.25;;;;;8.82;65.37;101850.16;6340015;22;45344;-47
2022/11/30 08:58:21;;;;;;;;;29.50;22.00;;;;;8.86;65.29;101844.13;6340248;22;45160;-49
2022/11/30 09:00:47;;;;;;;;;30.75;27.00;;;;;8.85;65.45;101839.72;6339846;22;45228;-50
2022/11/30 09:03:12;;;;;;;;;36.25;27.50;;;;;8.91;65.52;101856.41;6340146;22;45182;-50
2022/11/30 09:05:37;;;;;;;;;23.75;23.75;;;;;8.94;65.23;101852.94;6339303;22;48163;-52
2022/11/30 09:08:03;;;;;;;;;35.00;28.00;;;;;8.96;65.64;101855.59;6341048;22;45166;-53
2022/11/30 09:10:28;;;;;;;;;27.50;22.50;;;;;8.98;65.53;101862.59;6341028;22;45101;-52
2022/11/30 09:12:53;;;;;;;;;31.25;28.25;;;;;8.98;65.26;101857.34;6340601;22;52609;-51
2022/11/30 09:15:19;;;;;;;;;25.25;23.25;;;;;9.03;65.33;101863.53;6340889;22;46652;-53
2022/11/30 09:17:44;;;;;;;;;29.50;26.00;;;;;9.07;65.47;101870.56;6341622;22;45239;-49
2022/11/30 09:20:10;;;;;;;;;30.75;22.75;;;;;9.09;65.24;101874.06;6341522;22;45220;-49
2022/11/30 09:22:35;;;;;;;;;32.25;25.25;;;;;9.12;65.20;101875.84;6341032;22;45171;-52
2022/11/30 09:25:00;;;;;;;;;23.50;20.50;;;;;9.15;65.36;101880.25;6341108;22;46505;-50
2022/11/30 09:27:29;;;;;;;;;26.00;23.75;;;;;9.16;65.34;101882.00;6341162;22;45350;-53
2022/11/30 09:29:54;;;;;;;;;27.50;19.50;;;;;9.18;65.47;101880.25;6339184;22;45326;-51
2022/11/30 09:32:20;;;;;;;;;23.75;20.00;;;;;9.22;65.42;101882.94;6341502;22;45254;-53
2022/11/30 09:34:45;;;;;;;;;28.00;25.25;;;;;9.24;65.33;101882.94;6339034;22;45405;-47
2022/11/30 09:37:10;;;;;;;;;25.00;22.00;;;;;9.26;65.34;101876.84;6341346;22;49092;-51
2022/11/30 09:39:36;;;;;;;;;24.25;20.75;;;;;9.31;65.33;101890.03;6341176;22;47032;-48
2022/11/30 09:42:23;;;;;;;;;21.75;19.50;;;;;9.34;65.27;101881.28;6341531;22;45178;-48
2022/11/30 09:44:58;;;;;;;;;26.75;24.25;;;;;9.37;65.51;101887.44;6341752;22;45150;-47
2022/11/30 09:47:48;;;;;;;;;20.50;20.50;;;;;9.40;65.37;101882.22;6341694;22;45171;-47
2022/11/30 09:50:21;;;;;;;;;27.00;20.50;;;;;9.44;65.28;101883.13;6340881;22;45247;-49
2022/11/30 09:53:01;;;;;;;;;32.25;24.00;;;;;9.48;65.32;101882.28;6341185;22;45236;-51
2022/11/30 09:55:40;;;;;;;;;32.50;26.25;;;;;9.49;65.13;101868.31;6340696;22;45377;-51
2022/11/30 09:58:10;;;;;;;;;27.75;25.00;;;;;9.53;65.23;101877.09;6341462;22;45115;-51
2022/11/30 10:00:37;;;;;;;;;30.25;27.25;;;;;9.55;65.33;101870.09;6340999;22;45332;-53
2022/11/30 10:03:04;;;;;;;;;23.25;21.75;;;;;9.59;65.21;101871.88;6341244;22;45190;-52
2022/11/30 10:05:48;;;;;;;;;28.75;23.50;;;;;9.62;65.36;101882.38;6341123;22;45230;-51
2022/11/30 10:08:45;;;;;;;;;33.00;23.25;;;;;9.64;65.29;101875.41;6341410;22;45154;-52
2022/11/30 10:11:32;;;;;;;;;26.25;21.00;;;;;9.67;65.32;101880.72;6341314;22;45171;-50
2022/11/30 10:14:47;;;;;;;;;27.75;25.75;;;;;9.70;65.13;101869.34;6340889;22;45674;-49
2022/11/30 10:17:33;;;;;;;;;28.25;24.50;;;;;9.74;65.00;101882.50;6312050;22;46136;-50
2022/11/30 10:20:21;;;;;;;;;25.75;21.50;;;;;9.74;65.17;101873.75;6340736;22;45416;-50
2022/11/30 10:23:35;;;;;;;;;25.75;22.75;;;;;9.79;65.25;101871.16;6341401;22;45464;-50
2022/11/30 10:26:15;;;;;;;;;27.75;23.50;;;;;9.80;65.00;101871.19;6248719;22;45308;-49
2022/11/30 10:28:51;;;;;;;;;34.00;30.00;;;;;9.86;65.08;101872.94;6332732;22;45249;-48
2022/11/30 10:31:18;;;;;;;;;34.75;30.00;;;;;9.89;65.03;101865.09;6339209;22;45313;-48
2022/11/30 10:33:50;;;;;;;;;28.00;24.25;;;;;9.93;65.05;101866.88;6341306;22;45282;-51
2022/11/30 10:36:32;;;;;;;;;29.50;25.25;;;;;9.96;65.15;101864.28;6341004;22;45295;-48
2022/11/30 10:39:02;;;;;;;;;29.50;25.75;;;;;9.99;64.90;101866.06;6340621;22;46420;-52
2022/11/30 10:42:07;;;;;;;;;28.25;27.00;;;;;10.03;65.24;101870.44;6340383;22;45371;-52
2022/11/30 10:44:38;;;;;;;;;26.25;23.75;;;;;10.04;65.09;101854.69;6322300;22;45275;-51
2022/11/30 10:47:04;;;;;;;;;31.50;23.75;;;;;10.12;65.11;101859.13;6340655;22;45396;-51
2022/11/30 10:49:31;;;;;;;;;27.75;23.75;;;;;10.14;64.99;101850.38;6340490;22;45992;-51
2022/11/30 10:52:07;;;;;;;;;22.75;20.50;;;;;10.19;64.97;101850.41;6341173;22;45262;-51
2022/11/30 10:54:35;;;;;;;;;29.50;22.75;;;;;10.22;64.84;101847.78;6341142;22;45250;-50
2022/11/30 10:57:03;;;;;;;;;27.50;22.50;;;;;10.25;64.87;101837.28;6340836;22;45251;-53
2022/11/30 10:59:48;;;;;;;;;27.00;25.00;;;;;10.26;64.95;101833.78;6338440;22;48065;-50
2022/11/30 11:02:32;;;;;;;;;30.50;25.25;;;;;10.33;64.99;101838.19;6338944;22;45228;-52
2022/11/30 11:05:26;;;;;;;;;24.00;18.50;;;;;10.38;64.88;101841.75;6339051;22;45181;-48
2022/11/30 11:07:59;;;;;;;;;30.25;24.50;;;;;10.42;64.88;101837.38;6340399;22;45173;-48
2022/11/30 11:10:39;;;;;;;;;28.50;25.75;;;;;10.48;64.92;101841.81;6340711;22;46018;-49
2022/11/30 11:13:05;;;;;;;;;26.50;22.00;;;;;10.53;64.90;101842.69;6340993;22;45193;-50
2022/11/30 11:15:34;;;;;;;;;29.00;27.00;;;;;10.58;64.93;101843.59;6340741;22;45093;-53
2022/11/30 11:18:22;;;;;;;;;29.25;22.25;;;;;10.66;65.06;101848.88;6340634;22;45405;-53
2022/11/30 11:20:48;;;;;;;;;27.75;24.50;;;;;10.68;65.06;101840.13;6339896;22;46930;-53
2022/11/30 11:23:50;;;;;;;;;22.50;21.75;;;;;10.66;64.94;101831.34;6338685;22;45216;-47
2022/11/30 11:26:27;;;;;;;;;33.50;25.25;;;;;10.76;64.83;101834.88;6275307;22;45276;-51
2022/11/30 11:28:55;;;;;;;;;29.25;24.75;;;;;10.83;64.92;101841.91;6331588;22;45520;-51